sensor_id;sensor_type;location;lat;lon;timestamp;pressure;altitude;pressure_sealevel;temperature;humidity
61761;BME280;47664;51.660;-0.100;2023-02-10T00:00:53;102966.99;;;2.70;52.05
61761;BME280;47664;51.660;-0.100;2023-02-10T00:03:25;102970.35;;;3.86;52.12
61761;BME280;47664;51.660;-0.100;2023-02-10T00:05:54;102974.10;;;3.39;53.00
61761;BME280;47664;51.660;-0.100;2023-02-10T00:08:26;102972.23;;;3.56;52.94
61761;BME280;47664;51.660;-0.100;2023-02-10T00:10:56;102968.57;;;3.40;52.48
61761;BME280;47664;51.660;-0.100;2023-02-10T00:13:29;102971.18;;;3.82;52.34
61761;BME280;47664;51.660;-0.100;2023-02-10T00:16:03;102967.95;;;3.44;52.08
61761;BME280;47664;51.660;-0.100;2023-02-10T00:18:37;102964.44;;;3.20;52.03
61761;BME280;47664;51.660;-0.100;2023-02-10T00:21:13;102964.46;;;3.58;51.58
61761;BME280;47664;51.660;-0.100;2023-02-10T00:23:45;102962.24;;;3.63;51.59
61761;BME280;47664;51.660;-0.100;2023-02-10T00:26:18;102959.38;;;3.93;51.74
61761;BME280;47664;51.660;-0.100;2023-02-10T00:28:50;102953.10;;;3.92;51.58
61761;BME280;47664;51.660;-0.100;2023-02-10T00:31:22;102952.09;;;3.88;52.19
61761;BME280;47664;51.660;-0.100;2023-02-10T00:33:55;102949.30;;;3.75;52.53
61761;BME280;47664;51.660;-0.100;2023-02-10T00:36:27;102951.35;;;3.55;52.41
61761;BME280;47664;51.660;-0.100;2023-02-10T00:39:00;102952.02;;;3.45;52.10
61761;BME280;47664;51.660;-0.100;2023-02-10T00:41:32;102949.51;;;3.70;52.27
61761;BME280;47664;51.660;-0.100;2023-02-10T00:44:04;102943.45;;;3.63;51.85
61761;BME280;47664;51.660;-0.100;2023-02-10T00:46:36;102945.94;;;3.28;51.92
61761;BME280;47664;51.660;-0.100;2023-02-10T00:49:09;102952.90;;;3.32;52.41
61761;BME280;47664;51.660;-0.100;2023-02-10T00:51:42;102950.22;;;3.44;52.07
61761;BME280;47664;51.660;-0.100;2023-02-10T00:54:16;102948.72;;;3.28;52.44
61761;BME280;47664;51.660;-0.100;2023-02-10T00:56:48;102951.98;;;3.27;52.50
61761;BME280;47664;51.660;-0.100;2023-02-10T00:59:20;102957.55;;;3.27;52.16
61761;BME280;47664;51.660;-0.100;2023-02-10T01:01:52;102952.92;;;3.39;51.85
61761;BME280;47664;51.660;-0.100;2023-02-10T01:04:24;102952.38;;;3.87;52.05
61761;BME280;47664;51.660;-0.100;2023-02-10T01:06:57;102956.83;;;3.27;52.52
61761;BME280;47664;51.660;-0.100;2023-02-10T01:09:29;102954.33;;;3.55;52.24
61761;BME280;47664;51.660;-0.100;2023-02-10T01:12:01;102946.63;;;3.93;52.01
61761;BME280;47664;51.660;-0.100;2023-02-10T01:14:34;102952.16;;;3.34;52.23
61761;BME280;47664;51.660;-0.100;2023-02-10T01:17:06;102953.44;;;3.29;52.20
61761;BME280;47664;51.660;-0.100;2023-02-10T01:19:38;102957.44;;;3.18;52.67
61761;BME280;47664;51.660;-0.100;2023-02-10T01:22:09;102957.28;;;3.54;52.99
61761;BME280;47664;51.660;-0.100;2023-02-10T01:24:42;102961.00;;;2.98;53.17
61761;BME280;47664;51.660;-0.100;2023-02-10T01:27:14;102963.03;;;3.29;52.83
61761;BME280;47664;51.660;-0.100;2023-02-10T01:29:46;102959.11;;;3.09;53.19
61761;BME280;47664;51.660;-0.100;2023-02-10T01:32:19;102950.48;;;3.43;52.83
61761;BME280;47664;51.660;-0.100;2023-02-10T01:34:50;102945.78;;;3.49;52.61
61761;BME280;47664;51.660;-0.100;2023-02-10T01:37:22;102937.19;;;3.40;52.99
61761;BME280;47664;51.660;-0.100;2023-02-10T01:39:55;102934.65;;;3.54;52.79
61761;BME280;47664;51.660;-0.100;2023-02-10T01:42:27;102932.83;;;3.45;53.07
61761;BME280;47664;51.660;-0.100;2023-02-10T01:45:14;102933.80;;;3.30;53.43
61761;BME280;47664;51.660;-0.100;2023-02-10T01:47:47;102935.18;;;3.16;53.40
61761;BME280;47664;51.660;-0.100;2023-02-10T01:50:23;102940.47;;;3.38;53.00
61761;BME280;47664;51.660;-0.100;2023-02-10T01:52:57;102941.05;;;3.36;52.75
61761;BME280;47664;51.660;-0.100;2023-02-10T01:55:32;102947.73;;;3.30;52.76
61761;BME280;47664;51.660;-0.100;2023-02-10T01:58:05;102948.24;;;3.33;52.73
61761;BME280;47664;51.660;-0.100;2023-02-10T02:00:39;102944.70;;;2.76;52.91
61761;BME280;47664;51.660;-0.100;2023-02-10T02:03:11;102944.15;;;3.08;52.81
61761;BME280;47664;51.660;-0.100;2023-02-10T02:05:45;102952.00;;;2.60;53.29
61761;BME280;47664;51.660;-0.100;2023-02-10T02:08:15;102952.61;;;3.04;53.39
61761;BME280;47664;51.660;-0.100;2023-02-10T02:10:54;102955.70;;;3.22;53.03
61761;BME280;47664;51.660;-0.100;2023-02-10T02:13:35;102952.59;;;3.10;52.91
61761;BME280;47664;51.660;-0.100;2023-02-10T02:16:10;102955.81;;;3.26;53.06
61761;BME280;47664;51.660;-0.100;2023-02-10T02:18:47;102958.00;;;3.18;52.98
61761;BME280;47664;51.660;-0.100;2023-02-10T02:21:50;102957.53;;;3.38;52.67
61761;BME280;47664;51.660;-0.100;2023-02-10T02:24:39;102964.26;;;3.28;53.06
61761;BME280;47664;51.660;-0.100;2023-02-10T02:28:01;102959.03;;;3.28;52.70
61761;BME280;47664;51.660;-0.100;2023-02-10T02:30:48;102968.03;;;2.82;52.63
61761;BME280;47664;51.660;-0.100;2023-02-10T02:33:28;102969.69;;;3.12;52.47
61761;BME280;47664;51.660;-0.100;2023-02-10T02:36:01;102965.71;;;3.22;52.69
61761;BME280;47664;51.660;-0.100;2023-02-10T02:38:37;102965.01;;;2.68;53.06
61761;BME280;47664;51.660;-0.100;2023-02-10T02:41:10;102962.56;;;2.92;52.73
61761;BME280;47664;51.660;-0.100;2023-02-10T02:43:44;102958.94;;;2.91;53.09
61761;BME280;47664;51.660;-0.100;2023-02-10T02:46:21;102955.13;;;3.06;52.44
61761;BME280;47664;51.660;-0.100;2023-02-10T02:48:56;102955.05;;;3.25;52.75
61761;BME280;47664;51.660;-0.100;2023-02-10T02:51:34;102958.42;;;3.16;52.12
61761;BME280;47664;51.660;-0.100;2023-02-10T02:54:15;102958.87;;;2.97;52.58
61761;BME280;47664;51.660;-0.100;2023-02-10T02:56:54;102957.07;;;2.60;52.85
61761;BME280;47664;51.660;-0.100;2023-02-10T02:59:32;102953.55;;;3.22;52.55
61761;BME280;47664;51.660;-0.100;2023-02-10T03:02:09;102953.75;;;3.05;53.16
61761;BME280;47664;51.660;-0.100;2023-02-10T03:04:43;102954.62;;;2.67;53.03
61761;BME280;47664;51.660;-0.100;2023-02-10T03:07:15;102950.19;;;3.22;52.71
61761;BME280;47664;51.660;-0.100;2023-02-10T03:09:48;102950.22;;;2.62;52.92
61761;BME280;47664;51.660;-0.100;2023-02-10T03:12:20;102951.78;;;3.14;52.98
61761;BME280;47664;51.660;-0.100;2023-02-10T03:14:52;102947.12;;;2.74;53.46
61761;BME280;47664;51.660;-0.100;2023-02-10T03:17:24;102942.36;;;2.85;53.74
61761;BME280;47664;51.660;-0.100;2023-02-10T03:19:56;102943.66;;;2.76;54.03
61761;BME280;47664;51.660;-0.100;2023-02-10T03:22:28;102938.15;;;2.74;53.47
61761;BME280;47664;51.660;-0.100;2023-02-10T03:25:01;102935.43;;;2.76;53.39
61761;BME280;47664;51.660;-0.100;2023-02-10T03:27:33;102939.86;;;2.44;53.10
61761;BME280;47664;51.660;-0.100;2023-02-10T03:30:05;102938.22;;;3.24;52.24
61761;BME280;47664;51.660;-0.100;2023-02-10T03:32:37;102939.67;;;2.83;51.89
61761;BME280;47664;51.660;-0.100;2023-02-10T03:35:10;102941.15;;;3.04;52.27
61761;BME280;47664;51.660;-0.100;2023-02-10T03:37:42;102944.30;;;2.25;53.00
61761;BME280;47664;51.660;-0.100;2023-02-10T03:40:15;102945.83;;;2.31;53.84
61761;BME280;47664;51.660;-0.100;2023-02-10T03:42:47;102944.65;;;2.40;53.66
61761;BME280;47664;51.660;-0.100;2023-02-10T03:45:19;102941.67;;;2.29;53.95
61761;BME280;47664;51.660;-0.100;2023-02-10T03:47:51;102939.76;;;2.40;53.79
61761;BME280;47664;51.660;-0.100;2023-02-10T03:50:24;102936.78;;;2.35;53.66
61761;BME280;47664;51.660;-0.100;2023-02-10T03:52:56;102930.39;;;2.26;53.49
61761;BME280;47664;51.660;-0.100;2023-02-10T03:55:28;102919.97;;;2.61;53.26
61761;BME280;47664;51.660;-0.100;2023-02-10T03:58:00;102917.62;;;2.65;53.21
61761;BME280;47664;51.660;-0.100;2023-02-10T04:00:34;102913.97;;;2.29;53.30
61761;BME280;47664;51.660;-0.100;2023-02-10T04:03:06;102916.35;;;2.33;53.05
61761;BME280;47664;51.660;-0.100;2023-02-10T04:05:38;102926.21;;;1.70;53.97
61761;BME280;47664;51.660;-0.100;2023-02-10T04:08:11;102927.33;;;1.94;54.65
61761;BME280;47664;51.660;-0.100;2023-02-10T04:10:43;102924.28;;;2.10;53.77
61761;BME280;47664;51.660;-0.100;2023-02-10T04:13:15;102921.57;;;2.50;53.27
61761;BME280;47664;51.660;-0.100;2023-02-10T04:15:47;102920.15;;;2.53;52.43
61761;BME280;47664;51.660;-0.100;2023-02-10T04:18:19;102913.73;;;2.84;52.30
61761;BME280;47664;51.660;-0.100;2023-02-10T04:20:52;102915.81;;;2.50;52.68
61761;BME280;47664;51.660;-0.100;2023-02-10T04:23:24;102916.02;;;2.23;53.72
61761;BME280;47664;51.660;-0.100;2023-02-10T04:25:56;102915.11;;;2.35;54.15
61761;BME280;47664;51.660;-0.100;2023-02-10T04:28:29;102923.96;;;2.14;54.58
61761;BME280;47664;51.660;-0.100;2023-02-10T04:31:02;102931.95;;;1.90;54.61
61761;BME280;47664;51.660;-0.100;2023-02-10T04:33:35;102930.63;;;1.72;54.57
61761;BME280;47664;51.660;-0.100;2023-02-10T04:36:07;102926.23;;;1.82;55.50
61761;BME280;47664;51.660;-0.100;2023-02-10T04:38:39;102915.28;;;1.45;55.16
61761;BME280;47664;51.660;-0.100;2023-02-10T04:41:12;102918.59;;;1.50;55.48
61761;BME280;47664;51.660;-0.100;2023-02-10T04:43:44;102920.38;;;1.11;56.95
61761;BME280;47664;51.660;-0.100;2023-02-10T04:46:16;102918.70;;;1.23;56.71
61761;BME280;47664;51.660;-0.100;2023-02-10T04:48:48;102913.02;;;1.19;56.20
61761;BME280;47664;51.660;-0.100;2023-02-10T04:51:21;102910.45;;;1.39;55.76
61761;BME280;47664;51.660;-0.100;2023-02-10T04:53:52;102907.99;;;1.51;55.18
61761;BME280;47664;51.660;-0.100;2023-02-10T04:56:24;102918.42;;;1.43;55.53
61761;BME280;47664;51.660;-0.100;2023-02-10T04:58:57;102925.53;;;1.69;55.22
61761;BME280;47664;51.660;-0.100;2023-02-10T05:01:29;102926.40;;;1.39;56.05
61761;BME280;47664;51.660;-0.100;2023-02-10T05:04:01;102925.80;;;0.65;57.24
61761;BME280;47664;51.660;-0.100;2023-02-10T05:06:34;102919.27;;;0.82;56.69
61761;BME280;47664;51.660;-0.100;2023-02-10T05:09:06;102915.62;;;1.31;55.51
61761;BME280;47664;51.660;-0.100;2023-02-10T05:11:38;102915.68;;;1.12;54.91
61761;BME280;47664;51.660;-0.100;2023-02-10T05:14:10;102919.73;;;1.78;54.39
61761;BME280;47664;51.660;-0.100;2023-02-10T05:16:42;102916.65;;;1.30;54.51
61761;BME280;47664;51.660;-0.100;2023-02-10T05:19:14;102910.85;;;1.63;54.01
61761;BME280;47664;51.660;-0.100;2023-02-10T05:21:47;102914.28;;;1.38;54.32
61761;BME280;47664;51.660;-0.100;2023-02-10T05:24:19;102919.68;;;2.02;53.49
61761;BME280;47664;51.660;-0.100;2023-02-10T05:26:51;102920.64;;;2.28;52.72
61761;BME280;47664;51.660;-0.100;2023-02-10T05:29:23;102919.79;;;1.95;53.18
61761;BME280;47664;51.660;-0.100;2023-02-10T05:31:55;102923.52;;;1.68;53.87
61761;BME280;47664;51.660;-0.100;2023-02-10T05:34:28;102927.38;;;1.95;54.14
61761;BME280;47664;51.660;-0.100;2023-02-10T05:37:00;102928.52;;;1.84;54.22
61761;BME280;47664;51.660;-0.100;2023-02-10T05:39:33;102928.54;;;1.55;54.37
61761;BME280;47664;51.660;-0.100;2023-02-10T05:42:05;102927.89;;;1.47;54.78
61761;BME280;47664;51.660;-0.100;2023-02-10T05:44:37;102933.63;;;0.70;55.55
61761;BME280;47664;51.660;-0.100;2023-02-10T05:47:09;102941.60;;;0.87;56.85
61761;BME280;47664;51.660;-0.100;2023-02-10T05:49:41;102940.70;;;0.78;57.04
61761;BME280;47664;51.660;-0.100;2023-02-10T05:52:13;102945.87;;;1.07;57.16
61761;BME280;47664;51.660;-0.100;2023-02-10T05:54:45;102946.86;;;0.92;57.23
61761;BME280;47664;51.660;-0.100;2023-02-10T05:57:18;102942.72;;;1.28;57.23
61761;BME280;47664;51.660;-0.100;2023-02-10T05:59:50;102946.49;;;0.99;56.84
61761;BME280;47664;51.660;-0.100;2023-02-10T06:02:22;102944.78;;;0.77;57.70
61761;BME280;47664;51.660;-0.100;2023-02-10T06:04:54;102944.87;;;0.61;57.69
61761;BME280;47664;51.660;-0.100;2023-02-10T06:07:27;102935.78;;;0.78;57.70
61761;BME280;47664;51.660;-0.100;2023-02-10T06:09:59;102932.56;;;0.56;58.30
61761;BME280;47664;51.660;-0.100;2023-02-10T06:12:32;102932.09;;;0.30;58.15
61761;BME280;47664;51.660;-0.100;2023-02-10T06:15:04;102939.81;;;0.30;58.33
61761;BME280;47664;51.660;-0.100;2023-02-10T06:17:36;102950.24;;;0.68;57.39
61761;BME280;47664;51.660;-0.100;2023-02-10T06:20:09;102955.97;;;1.23;56.54
61761;BME280;47664;51.660;-0.100;2023-02-10T06:22:41;102952.19;;;1.07;55.57
61761;BME280;47664;51.660;-0.100;2023-02-10T06:25:14;102955.30;;;1.66;54.98
61761;BME280;47664;51.660;-0.100;2023-02-10T06:27:46;102949.84;;;1.43;55.20
61761;BME280;47664;51.660;-0.100;2023-02-10T06:30:19;102952.91;;;1.50;55.32
61761;BME280;47664;51.660;-0.100;2023-02-10T06:32:51;102948.70;;;1.52;55.19
61761;BME280;47664;51.660;-0.100;2023-02-10T06:35:23;102948.68;;;1.70;55.16
61761;BME280;47664;51.660;-0.100;2023-02-10T06:37:56;102955.15;;;1.72;55.36
61761;BME280;47664;51.660;-0.100;2023-02-10T06:40:28;102953.59;;;1.94;55.13
61761;BME280;47664;51.660;-0.100;2023-02-10T06:43:01;102947.73;;;1.85;55.79
61761;BME280;47664;51.660;-0.100;2023-02-10T06:45:34;102946.13;;;1.74;56.12
61761;BME280;47664;51.660;-0.100;2023-02-10T06:48:06;102939.30;;;1.63;56.46
61761;BME280;47664;51.660;-0.100;2023-02-10T06:50:38;102941.10;;;1.39;56.01
61761;BME280;47664;51.660;-0.100;2023-02-10T06:53:10;102946.21;;;1.83;55.95
61761;BME280;47664;51.660;-0.100;2023-02-10T06:55:42;102947.84;;;1.72;55.63
61761;BME280;47664;51.660;-0.100;2023-02-10T06:58:15;102960.30;;;1.73;56.34
61761;BME280;47664;51.660;-0.100;2023-02-10T07:00:47;102968.20;;;1.01;57.40
61761;BME280;47664;51.660;-0.100;2023-02-10T07:03:19;102962.95;;;1.92;56.75
61761;BME280;47664;51.660;-0.100;2023-02-10T07:05:51;102962.55;;;1.61;56.28
61761;BME280;47664;51.660;-0.100;2023-02-10T07:08:24;102958.74;;;1.89;55.69
61761;BME280;47664;51.660;-0.100;2023-02-10T07:10:56;102959.14;;;2.18;55.06
61761;BME280;47664;51.660;-0.100;2023-02-10T07:13:29;102958.80;;;2.37;54.77
61761;BME280;47664;51.660;-0.100;2023-02-10T07:16:02;102954.98;;;2.34;55.02
61761;BME280;47664;51.660;-0.100;2023-02-10T07:18:34;102946.99;;;2.09;54.88
61761;BME280;47664;51.660;-0.100;2023-02-10T07:21:06;102945.22;;;2.43;54.57
61761;BME280;47664;51.660;-0.100;2023-02-10T07:23:39;102952.07;;;2.12;54.62
61761;BME280;47664;51.660;-0.100;2023-02-10T07:26:11;102957.64;;;2.27;54.85
61761;BME280;47664;51.660;-0.100;2023-02-10T07:28:43;102959.45;;;2.16;54.61
61761;BME280;47664;51.660;-0.100;2023-02-10T07:31:16;102957.16;;;2.37;54.55
61761;BME280;47664;51.660;-0.100;2023-02-10T07:33:48;102963.67;;;2.23;54.24
61761;BME280;47664;51.660;-0.100;2023-02-10T07:36:21;102968.30;;;2.49;54.25
61761;BME280;47664;51.660;-0.100;2023-02-10T07:38:53;102969.60;;;2.85;54.29
61761;BME280;47664;51.660;-0.100;2023-02-10T07:41:25;102970.06;;;2.33;54.40
61761;BME280;47664;51.660;-0.100;2023-02-10T07:43:57;102966.69;;;2.62;54.48
61761;BME280;47664;51.660;-0.100;2023-02-10T07:46:29;102966.99;;;2.43;54.62
61761;BME280;47664;51.660;-0.100;2023-02-10T07:49:01;102964.64;;;2.67;54.13
61761;BME280;47664;51.660;-0.100;2023-02-10T07:51:33;102962.76;;;2.42;54.57
61761;BME280;47664;51.660;-0.100;2023-02-10T07:54:06;102958.74;;;2.47;54.91
61761;BME280;47664;51.660;-0.100;2023-02-10T07:56:39;102958.17;;;1.95;54.87
61761;BME280;47664;51.660;-0.100;2023-02-10T07:59:11;102960.85;;;2.57;55.24
61761;BME280;47664;51.660;-0.100;2023-02-10T08:01:45;102966.34;;;2.36;55.17
61761;BME280;47664;51.660;-0.100;2023-02-10T08:04:17;102963.35;;;2.44;56.03
61761;BME280;47664;51.660;-0.100;2023-02-10T08:06:49;102963.15;;;2.14;56.30
61761;BME280;47664;51.660;-0.100;2023-02-10T08:09:21;102961.47;;;2.78;55.53
61761;BME280;47664;51.660;-0.100;2023-02-10T08:11:54;102971.29;;;2.64;55.20
61761;BME280;47664;51.660;-0.100;2023-02-10T08:14:26;102977.37;;;2.97;54.86
61761;BME280;47664;51.660;-0.100;2023-02-10T08:16:59;102974.52;;;2.99;54.41
61761;BME280;47664;51.660;-0.100;2023-02-10T08:19:32;102973.24;;;2.90;54.37
61761;BME280;47664;51.660;-0.100;2023-02-10T08:22:04;102974.97;;;3.02;54.38
61761;BME280;47664;51.660;-0.100;2023-02-10T08:24:36;102975.09;;;2.80;54.12
61761;BME280;47664;51.660;-0.100;2023-02-10T08:27:09;102971.84;;;3.34;54.05
61761;BME280;47664;51.660;-0.100;2023-02-10T08:29:42;102975.84;;;3.17;54.53
61761;BME280;47664;51.660;-0.100;2023-02-10T08:32:14;102974.66;;;3.42;54.59
61761;BME280;47664;51.660;-0.100;2023-02-10T08:34:46;102978.16;;;3.61;54.23
61761;BME280;47664;51.660;-0.100;2023-02-10T08:37:19;102980.59;;;3.52;53.63
61761;BME280;47664;51.660;-0.100;2023-02-10T08:39:51;102981.01;;;2.78;53.75
61761;BME280;47664;51.660;-0.100;2023-02-10T08:42:24;102981.13;;;3.08;54.38
61761;BME280;47664;51.660;-0.100;2023-02-10T08:44:56;102981.95;;;3.12;54.56
61761;BME280;47664;51.660;-0.100;2023-02-10T08:47:28;102978.33;;;3.07;54.33
61761;BME280;47664;51.660;-0.100;2023-02-10T08:50:01;102975.26;;;3.20;54.52
61761;BME280;47664;51.660;-0.100;2023-02-10T08:52:33;102981.37;;;3.07;54.45
61761;BME280;47664;51.660;-0.100;2023-02-10T08:55:06;102984.38;;;3.26;54.56
61761;BME280;47664;51.660;-0.100;2023-02-10T08:57:38;102992.48;;;2.90;54.57
61761;BME280;47664;51.660;-0.100;2023-02-10T09:00:11;102993.03;;;3.17;54.24
61761;BME280;47664;51.660;-0.100;2023-02-10T09:02:44;102986.61;;;3.28;54.26
61761;BME280;47664;51.660;-0.100;2023-02-10T09:05:17;102985.54;;;3.39;54.51
61761;BME280;47664;51.660;-0.100;2023-02-10T09:07:49;102982.83;;;3.53;53.68
61761;BME280;47664;51.660;-0.100;2023-02-10T09:10:21;102978.89;;;3.42;53.68
61761;BME280;47664;51.660;-0.100;2023-02-10T09:12:53;102977.51;;;3.64;53.68
61761;BME280;47664;51.660;-0.100;2023-02-10T09:15:26;102984.31;;;3.66;53.59
61761;BME280;47664;51.660;-0.100;2023-02-10T09:17:58;102996.23;;;3.47;54.16
61761;BME280;47664;51.660;-0.100;2023-02-10T09:20:30;102999.80;;;3.15;55.59
61761;BME280;47664;51.660;-0.100;2023-02-10T09:23:03;103009.41;;;2.90;56.58
61761;BME280;47664;51.660;-0.100;2023-02-10T09:25:35;103015.01;;;2.69;57.09
61761;BME280;47664;51.660;-0.100;2023-02-10T09:28:08;103019.10;;;2.56;57.16
61761;BME280;47664;51.660;-0.100;2023-02-10T09:30:40;103022.02;;;1.95;57.46
61761;BME280;47664;51.660;-0.100;2023-02-10T09:33:12;103019.40;;;2.58;58.00
61761;BME280;47664;51.660;-0.100;2023-02-10T09:35:44;103010.56;;;2.18;57.94
61761;BME280;47664;51.660;-0.100;2023-02-10T09:38:18;103004.19;;;2.38;58.18
61761;BME280;47664;51.660;-0.100;2023-02-10T09:40:50;103007.06;;;1.89;58.77
61761;BME280;47664;51.660;-0.100;2023-02-10T09:43:37;103004.07;;;2.26;58.62
61761;BME280;47664;51.660;-0.100;2023-02-10T09:46:32;102999.84;;;2.26;58.52
61761;BME280;47664;51.660;-0.100;2023-02-10T09:49:17;103004.85;;;2.38;58.84
61761;BME280;47664;51.660;-0.100;2023-02-10T09:51:55;103014.38;;;2.10;58.86
61761;BME280;47664;51.660;-0.100;2023-02-10T09:54:30;103012.85;;;2.47;58.28
61761;BME280;47664;51.660;-0.100;2023-02-10T09:57:01;103009.32;;;2.47;58.34
61761;BME280;47664;51.660;-0.100;2023-02-10T09:59:36;103004.96;;;2.23;58.19
61761;BME280;47664;51.660;-0.100;2023-02-10T10:02:12;103005.16;;;2.40;58.89
61761;BME280;47664;51.660;-0.100;2023-02-10T10:04:47;103009.00;;;2.58;59.04
61761;BME280;47664;51.660;-0.100;2023-02-10T10:07:22;103012.20;;;2.86;58.37
61761;BME280;47664;51.660;-0.100;2023-02-10T10:10:00;103014.23;;;2.48;58.77
61761;BME280;47664;51.660;-0.100;2023-02-10T10:12:33;103007.92;;;2.63;58.89
61761;BME280;47664;51.660;-0.100;2023-02-10T10:15:06;102999.91;;;2.66;59.46
61761;BME280;47664;51.660;-0.100;2023-02-10T10:17:54;103002.62;;;2.42;59.24
61761;BME280;47664;51.660;-0.100;2023-02-10T10:20:33;103003.91;;;3.12;58.50
61761;BME280;47664;51.660;-0.100;2023-02-10T10:23:19;103004.62;;;2.85;58.64
61761;BME280;47664;51.660;-0.100;2023-02-10T10:25:57;103005.28;;;2.57;58.79
61761;BME280;47664;51.660;-0.100;2023-02-10T10:28:37;103002.05;;;3.05;58.13
61761;BME280;47664;51.660;-0.100;2023-02-10T10:31:13;103003.67;;;3.14;57.87
61761;BME280;47664;51.660;-0.100;2023-02-10T10:33:46;103001.64;;;2.69;59.13
61761;BME280;47664;51.660;-0.100;2023-02-10T10:36:23;103006.42;;;3.01;59.43
61761;BME280;47664;51.660;-0.100;2023-02-10T10:38:59;103011.04;;;2.64;59.18
61761;BME280;47664;51.660;-0.100;2023-02-10T10:41:30;103011.37;;;2.81;57.95
61761;BME280;47664;51.660;-0.100;2023-02-10T10:44:03;103013.80;;;2.96;58.25
61761;BME280;47664;51.660;-0.100;2023-02-10T10:46:35;103014.88;;;2.91;58.18
61761;BME280;47664;51.660;-0.100;2023-02-10T10:49:10;103010.76;;;2.97;57.92
61761;BME280;47664;51.660;-0.100;2023-02-10T10:51:43;103006.35;;;2.71;57.53
61761;BME280;47664;51.660;-0.100;2023-02-10T10:54:15;103002.15;;;3.47;56.83
61761;BME280;47664;51.660;-0.100;2023-02-10T10:56:50;102996.37;;;3.40;56.15
61761;BME280;47664;51.660;-0.100;2023-02-10T10:59:29;102997.06;;;3.95;55.49
61761;BME280;47664;51.660;-0.100;2023-02-10T11:02:10;103004.10;;;3.92;54.85
61761;BME280;47664;51.660;-0.100;2023-02-10T11:04:42;103010.94;;;3.74;55.47
61761;BME280;47664;51.660;-0.100;2023-02-10T11:07:17;103005.67;;;4.02;54.50
61761;BME280;47664;51.660;-0.100;2023-02-10T11:09:50;102998.59;;;3.92;54.43
61761;BME280;47664;51.660;-0.100;2023-02-10T11:12:21;102998.41;;;4.42;53.90
61761;BME280;47664;51.660;-0.100;2023-02-10T11:14:57;102996.22;;;4.41;53.45
61761;BME280;47664;51.660;-0.100;2023-02-10T11:17:32;102992.40;;;4.67;52.51
61761;BME280;47664;51.660;-0.100;2023-02-10T11:20:04;102986.51;;;4.63;53.01
61761;BME280;47664;51.660;-0.100;2023-02-10T11:22:36;102981.27;;;3.81;53.44
61761;BME280;47664;51.660;-0.100;2023-02-10T11:25:24;102977.37;;;4.10;54.33
61761;BME280;47664;51.660;-0.100;2023-02-10T11:27:57;102969.08;;;4.16;54.13
61761;BME280;47664;51.660;-0.100;2023-02-10T11:30:32;102972.35;;;4.25;54.78
61761;BME280;47664;51.660;-0.100;2023-02-10T11:33:06;102973.41;;;4.06;54.99
61761;BME280;47664;51.660;-0.100;2023-02-10T11:35:48;102963.98;;;4.25;54.30
61761;BME280;47664;51.660;-0.100;2023-02-10T11:38:24;102951.56;;;4.15;53.18
61761;BME280;47664;51.660;-0.100;2023-02-10T11:40:58;102952.13;;;4.36;52.82
61761;BME280;47664;51.660;-0.100;2023-02-10T11:43:30;102952.97;;;4.51;52.94
61761;BME280;47664;51.660;-0.100;2023-02-10T11:46:05;102948.57;;;4.02;53.47
61761;BME280;47664;51.660;-0.100;2023-02-10T11:48:38;102950.84;;;4.30;53.25
61761;BME280;47664;51.660;-0.100;2023-02-10T11:51:13;102945.29;;;4.85;52.19
61761;BME280;47664;51.660;-0.100;2023-02-10T11:53:47;102946.35;;;4.35;52.50
61761;BME280;47664;51.660;-0.100;2023-02-10T11:56:19;102952.62;;;4.99;52.53
61761;BME280;47664;51.660;-0.100;2023-02-10T11:58:55;102952.64;;;5.00;51.54
61761;BME280;47664;51.660;-0.100;2023-02-10T12:01:36;102947.81;;;5.14;51.00
61761;BME280;47664;51.660;-0.100;2023-02-10T12:04:19;102945.33;;;5.28;51.48
61761;BME280;47664;51.660;-0.100;2023-02-10T12:06:56;102945.04;;;5.25;51.79
61761;BME280;47664;51.660;-0.100;2023-02-10T12:09:35;102952.17;;;4.99;52.87
61761;BME280;47664;51.660;-0.100;2023-02-10T12:12:11;102949.51;;;4.82;53.27
61761;BME280;47664;51.660;-0.100;2023-02-10T12:14:52;102940.92;;;5.18;54.74
61761;BME280;47664;51.660;-0.100;2023-02-10T12:17:26;102929.13;;;5.06;53.00
61761;BME280;47664;51.660;-0.100;2023-02-10T12:20:07;102926.40;;;5.25;52.75
61761;BME280;47664;51.660;-0.100;2023-02-10T12:22:55;102928.70;;;5.57;53.35
61761;BME280;47664;51.660;-0.100;2023-02-10T12:25:34;102926.21;;;5.69;52.95
61761;BME280;47664;51.660;-0.100;2023-02-10T12:28:08;102925.67;;;5.65;52.85
61761;BME280;47664;51.660;-0.100;2023-02-10T12:30:45;102925.73;;;5.91;51.62
61761;BME280;47664;51.660;-0.100;2023-02-10T12:33:29;102924.27;;;6.09;51.51
61761;BME280;47664;51.660;-0.100;2023-02-10T12:36:08;102930.50;;;5.85;52.12
61761;BME280;47664;51.660;-0.100;2023-02-10T12:38:53;102932.17;;;5.09;53.00
61761;BME280;47664;51.660;-0.100;2023-02-10T12:41:30;102931.08;;;6.41;51.79
61761;BME280;47664;51.660;-0.100;2023-02-10T12:44:18;102924.18;;;6.00;52.19
61761;BME280;47664;51.660;-0.100;2023-02-10T12:46:59;102910.33;;;5.65;53.01
61761;BME280;47664;51.660;-0.100;2023-02-10T12:49:41;102903.18;;;6.11;52.76
61761;BME280;47664;51.660;-0.100;2023-02-10T12:52:15;102902.34;;;5.75;52.95
61761;BME280;47664;51.660;-0.100;2023-02-10T12:54:50;102896.05;;;5.46;53.32
61761;BME280;47664;51.660;-0.100;2023-02-10T12:57:27;102892.65;;;6.07;52.74
61761;BME280;47664;51.660;-0.100;2023-02-10T12:59:59;102890.23;;;6.22;51.77
61761;BME280;47664;51.660;-0.100;2023-02-10T13:02:38;102883.21;;;6.35;51.88
61761;BME280;47664;51.660;-0.100;2023-02-10T13:05:15;102876.60;;;6.52;51.51
61761;BME280;47664;51.660;-0.100;2023-02-10T13:07:49;102870.48;;;5.92;51.47
61761;BME280;47664;51.660;-0.100;2023-02-10T13:10:27;102865.29;;;6.58;51.15
61761;BME280;47664;51.660;-0.100;2023-02-10T13:13:04;102867.55;;;6.24;52.23
61761;BME280;47664;51.660;-0.100;2023-02-10T13:15:40;102877.52;;;5.59;52.30
61761;BME280;47664;51.660;-0.100;2023-02-10T13:18:17;102877.92;;;5.93;53.12
61761;BME280;47664;51.660;-0.100;2023-02-10T13:20:53;102879.55;;;5.12;53.95
61761;BME280;47664;51.660;-0.100;2023-02-10T13:23:24;102874.55;;;5.50;54.50
61761;BME280;47664;51.660;-0.100;2023-02-10T13:26:08;102865.74;;;5.51;54.02